createdAt,value
2019-04-25T00:01:11.594Z,95529.50
2019-04-25T00:03:42.554Z,95531.52
2019-04-25T00:06:13.397Z,95529.30
2019-04-25T00:08:44.043Z,95532.53
2019-04-25T00:11:13.748Z,95525.55
2019-04-25T00:13:44.068Z,95525.55
2019-04-25T00:16:14.579Z,95526.55
2019-04-25T00:18:44.260Z,95532.44
2019-04-25T00:21:21.988Z,95532.95
2019-04-25T00:23:56.254Z,95527.33
2019-04-25T00:26:44.019Z,95529.38
2019-04-25T00:29:13.263Z,95531.77
2019-04-25T00:31:45.680Z,95525.45
2019-04-25T00:34:15.420Z,95526.58
2019-04-25T00:36:45.618Z,95532.59
2019-04-25T00:39:15.216Z,95529.95
2019-04-25T00:41:46.140Z,95527.70
2019-04-25T00:44:15.873Z,95523.05
2019-04-25T00:46:48.598Z,95521.50
2019-04-25T00:49:16.567Z,95530.82
2019-04-25T00:51:46.175Z,95535.97
2019-04-25T00:54:15.595Z,95537.36
2019-04-25T00:56:47.767Z,95528.09
2019-04-25T00:59:25.131Z,95528.39
2019-04-25T01:02:07.543Z,95533.72
2019-04-25T01:04:36.177Z,95535.92
2019-04-25T01:07:05.716Z,95544.55
2019-04-25T01:09:35.177Z,95536.52
2019-04-25T01:12:04.714Z,95534.61
2019-04-25T01:14:34.324Z,95534.84
2019-04-25T01:17:03.897Z,95536.02
2019-04-25T01:19:34.462Z,95538.16
2019-04-25T01:22:04.277Z,95540.78
2019-04-25T01:24:34.049Z,95539.78
2019-04-25T01:27:05.329Z,95539.84
2019-04-25T01:29:34.893Z,95541.48
2019-04-25T01:32:06.540Z,95548.75
2019-04-25T01:35:00.084Z,95548.38
2019-04-25T01:37:43.716Z,95560.63
2019-04-25T01:40:38.305Z,95551.02
2019-04-25T01:43:26.302Z,95554.24
2019-04-25T01:45:56.838Z,95550.52
2019-04-25T01:48:26.342Z,95547.58
2019-04-25T01:50:56.517Z,95552.17
2019-04-25T01:53:26.102Z,95555.40
2019-04-25T01:56:01.564Z,95547.58
2019-04-25T01:58:26.913Z,95548.42
2019-04-25T02:00:57.324Z,95549.98
2019-04-25T02:03:27.369Z,95545.81
2019-04-25T02:05:57.304Z,95540.42
2019-04-25T02:08:26.901Z,95537.73
2019-04-25T02:11:07.406Z,95545.00
2019-04-25T02:13:37.027Z,95540.55
2019-04-25T02:16:08.159Z,95543.83
2019-04-25T02:18:37.751Z,95541.53
2019-04-25T02:21:07.591Z,95539.84
2019-04-25T02:23:37.071Z,95528.02
2019-04-25T02:26:15.663Z,95530.55
2019-04-25T02:28:37.893Z,95531.62
2019-04-25T02:31:08.873Z,95532.13
2019-04-25T02:33:38.584Z,95533.03
2019-04-25T02:36:08.878Z,95526.91
2019-04-25T02:38:38.484Z,95529.72
2019-04-25T02:41:09.059Z,95528.09
2019-04-25T02:43:38.659Z,95533.66
2019-04-25T02:46:37.107Z,95526.31
2019-04-25T02:49:40.146Z,95537.05
2019-04-25T02:52:31.513Z,95531.38
2019-04-25T02:55:02.119Z,95540.18
2019-04-25T02:57:34.415Z,95547.13
2019-04-25T03:00:06.741Z,95536.73
2019-04-25T03:02:36.770Z,95543.55
2019-04-25T03:05:09.574Z,95543.64
2019-04-25T03:07:37.362Z,95545.39
2019-04-25T03:10:09.813Z,95546.61
2019-04-25T03:12:39.491Z,95549.55
2019-04-25T03:15:10.293Z,95552.68
2019-04-25T03:17:40.122Z,95553.32
2019-04-25T03:20:24.417Z,95556.33
2019-04-25T03:22:54.803Z,95552.56
2019-04-25T03:25:24.940Z,95546.00
2019-04-25T03:27:54.513Z,95541.33
2019-04-25T03:30:25.577Z,95536.34
2019-04-25T03:32:56.192Z,95542.33
2019-04-25T03:35:25.850Z,95541.02
2019-04-25T03:37:55.348Z,95537.98
2019-04-25T03:40:24.817Z,95551.17
2019-04-25T03:42:54.319Z,95552.48
2019-04-25T03:45:23.813Z,95553.61
2019-04-25T03:47:53.319Z,95549.54
2019-04-25T03:50:23.269Z,95557.05
2019-04-25T03:52:54.035Z,95552.92
2019-04-25T03:55:24.128Z,95547.72
2019-04-25T03:57:53.988Z,95551.05
2019-04-25T04:00:24.099Z,95558.86
2019-04-25T04:02:55.382Z,95561.67
2019-04-25T04:05:24.953Z,95566.06
2019-04-25T04:07:54.451Z,95570.82
2019-04-25T04:10:23.933Z,95573.80
2019-04-25T04:12:54.256Z,95564.16
2019-04-25T04:15:25.069Z,95567.41
2019-04-25T04:18:01.679Z,95578.16
2019-04-25T04:20:41.472Z,95586.36
2019-04-25T04:23:33.223Z,95584.23
2019-04-25T04:26:03.299Z,95577.66
2019-04-25T04:28:33.748Z,95580.01
2019-04-25T04:31:03.727Z,95584.06
2019-04-25T04:33:34.621Z,95593.48
2019-04-25T04:36:04.162Z,95592.11
2019-04-25T04:38:34.206Z,95588.34
2019-04-25T04:41:04.075Z,95593.41
2019-04-25T04:43:34.207Z,95600.47
2019-04-25T04:46:04.006Z,95597.25
2019-04-25T04:48:34.245Z,95598.13
2019-04-25T04:51:03.903Z,95596.94
2019-04-25T04:53:33.868Z,95596.16
2019-04-25T04:56:04.672Z,95602.86
2019-04-25T04:58:34.347Z,95598.23
2019-04-25T05:01:03.867Z,95599.45
2019-04-25T05:03:51.973Z,95598.94
2019-04-25T05:06:41.280Z,95608.08
2019-04-25T05:09:20.031Z,95615.58
2019-04-25T05:11:49.521Z,95609.56
2019-04-25T05:14:19.518Z,95604.30
2019-04-25T05:16:49.607Z,95608.05
2019-04-25T05:19:19.931Z,95611.19
2019-04-25T05:21:49.459Z,95612.17
2019-04-25T05:24:18.985Z,95607.50
2019-04-25T05:26:48.468Z,95613.42
2019-04-25T05:29:21.331Z,95613.63
2019-04-25T05:31:51.414Z,95615.85
2019-04-25T05:34:21.691Z,95611.00
2019-04-25T05:36:51.351Z,95607.75
2019-04-25T05:39:20.840Z,95603.01
2019-04-25T05:42:16.271Z,95600.20
2019-04-25T05:44:46.346Z,95603.39
2019-04-25T05:47:16.272Z,95605.41
2019-04-25T05:49:46.583Z,95606.73
2019-04-25T05:52:16.114Z,95607.91
2019-04-25T05:54:45.660Z,95593.02
2019-04-25T05:57:16.535Z,95604.20
2019-04-25T05:59:46.170Z,95598.25
2019-04-25T06:02:15.655Z,95596.78
2019-04-25T06:04:45.166Z,95605.83
2019-04-25T06:07:14.662Z,95605.48
2019-04-25T06:09:52.093Z,95601.14
2019-04-25T06:12:45.031Z,95605.17
2019-04-25T06:15:14.781Z,95602.52
2019-04-25T06:18:03.882Z,95604.55
2019-04-25T06:20:35.975Z,95608.27
2019-04-25T06:23:18.882Z,95615.73
2019-04-25T06:25:48.447Z,95609.80
2019-04-25T06:28:20.333Z,95609.08
2019-04-25T06:30:51.133Z,95613.86
2019-04-25T06:33:21.325Z,95608.77
2019-04-25T06:35:50.894Z,95606.98
2019-04-25T06:38:21.382Z,95615.98
2019-04-25T06:40:51.125Z,95609.56
2019-04-25T06:43:20.585Z,95609.41
2019-04-25T06:46:08.187Z,95608.84
2019-04-25T06:48:56.614Z,95611.16
2019-04-25T06:51:46.046Z,95611.22
2019-04-25T06:54:15.145Z,95619.02
2019-04-25T06:56:44.642Z,95620.31
2019-04-25T06:59:14.130Z,95619.16
2019-04-25T07:01:44.005Z,95612.61
2019-04-25T07:04:14.099Z,95617.02
2019-04-25T07:06:45.496Z,95609.45
2019-04-25T07:09:15.179Z,95618.95
2019-04-25T07:11:44.746Z,95613.12
2019-04-25T07:14:14.335Z,95617.17
2019-04-25T07:16:44.228Z,95618.54
2019-04-25T07:19:20.326Z,95620.23
2019-04-25T07:21:50.358Z,95608.78
2019-04-25T07:24:20.274Z,95613.63
2019-04-25T07:27:08.047Z,95610.98
2019-04-25T07:29:58.708Z,95613.07
2019-04-25T07:32:38.843Z,95606.66
2019-04-25T07:35:09.367Z,95605.12
2019-04-25T07:37:41.503Z,95604.14
2019-04-25T07:40:10.908Z,95600.25
2019-04-25T07:42:40.404Z,95604.66
2019-04-25T07:45:11.155Z,95601.95
2019-04-25T07:47:40.901Z,95601.05
2019-04-25T07:50:10.762Z,95603.64
2019-04-25T07:52:40.307Z,95603.41
2019-04-25T07:55:09.985Z,95597.48
2019-04-25T07:57:39.504Z,95590.02
2019-04-25T08:00:14.634Z,95582.92
2019-04-25T08:02:44.136Z,95575.30
2019-04-25T08:05:16.892Z,95572.69
2019-04-25T08:07:46.429Z,95569.92
2019-04-25T08:10:17.241Z,95564.87
2019-04-25T08:12:47.484Z,95572.39
2019-04-25T08:15:30.206Z,95582.08
2019-04-25T08:18:09.749Z,95578.09
2019-04-25T08:20:40.077Z,95581.02
2019-04-25T08:23:09.774Z,95572.94
2019-04-25T08:25:40.564Z,95575.55
2019-04-25T08:28:10.257Z,95572.52
2019-04-25T08:30:39.757Z,95573.27
2019-04-25T08:33:09.306Z,95570.44
2019-04-25T08:35:38.931Z,95568.99
2019-04-25T08:38:08.467Z,95572.25
2019-04-25T08:40:38.997Z,95567.99
2019-04-25T08:43:08.571Z,95560.55
2019-04-25T08:45:39.776Z,95554.33
2019-04-25T08:48:09.522Z,95556.05
2019-04-25T08:50:54.232Z,95552.09
2019-04-25T08:53:26.973Z,95545.00
2019-04-25T08:56:07.240Z,95539.95
2019-04-25T08:59:06.211Z,95535.48
2019-04-25T09:01:58.087Z,95531.75
2019-04-25T09:04:38.831Z,95531.38
2019-04-25T09:07:08.688Z,95534.94
2019-04-25T09:09:39.023Z,95526.91
2019-04-25T09:12:08.648Z,95510.14
2019-04-25T09:14:38.968Z,95512.25
2019-04-25T09:17:08.601Z,95510.77
2019-04-25T09:19:38.466Z,95513.05
2019-04-25T09:22:08.058Z,95508.03
2019-04-25T09:24:38.749Z,95500.57
2019-04-25T09:27:08.541Z,95496.36
2019-04-25T09:29:38.907Z,95501.22
2019-04-25T09:32:08.477Z,95499.81
2019-04-25T09:34:38.155Z,95503.30
2019-04-25T09:37:07.589Z,95505.85
2019-04-25T09:40:02.075Z,95494.56
2019-04-25T09:42:31.674Z,95504.06
2019-04-25T09:45:15.264Z,95499.78
2019-04-25T09:47:46.036Z,95496.35
2019-04-25T09:50:33.958Z,95488.93
2019-04-25T09:53:04.534Z,95480.23
2019-04-25T09:55:54.231Z,95479.94
2019-04-25T09:58:48.334Z,95474.00
2019-04-25T10:01:17.251Z,95474.56
2019-04-25T10:03:47.811Z,95473.84
2019-04-25T10:06:19.414Z,95466.25
2019-04-25T10:08:48.947Z,95467.63
2019-04-25T10:11:18.440Z,95461.28
2019-04-25T10:14:14.609Z,95453.89
2019-04-25T10:16:44.701Z,95449.21
2019-04-25T10:19:15.620Z,95448.11
2019-04-25T10:21:45.257Z,95454.47
2019-04-25T10:24:14.735Z,95449.98
2019-04-25T10:26:46.395Z,95450.11
2019-04-25T10:29:15.921Z,95444.53
2019-04-25T10:31:45.572Z,95440.84
2019-04-25T10:34:15.131Z,95428.83
2019-04-25T10:36:45.409Z,95429.45
2019-04-25T10:39:15.052Z,95431.98
2019-04-25T10:41:46.487Z,95429.37
2019-04-25T10:44:16.125Z,95428.61
2019-04-25T10:46:47.239Z,95426.02
2019-04-25T10:49:16.922Z,95429.84
2019-04-25T10:51:46.446Z,95422.94
2019-04-25T10:54:15.928Z,95420.33
2019-04-25T10:56:47.110Z,95414.17
2019-04-25T10:59:16.776Z,95412.30
2019-04-25T11:01:47.287Z,95406.43
2019-04-25T11:04:31.800Z,95404.28
2019-04-25T11:07:01.350Z,95406.70
2019-04-25T11:09:30.938Z,95402.22
2019-04-25T11:12:00.495Z,95403.86
2019-04-25T11:14:31.822Z,95400.66
2019-04-25T11:17:01.734Z,95398.06
2019-04-25T11:19:31.336Z,95399.97
2019-04-25T11:22:00.938Z,95398.34
2019-04-25T11:24:30.547Z,95400.76
2019-04-25T11:27:00.062Z,95390.87
2019-04-25T11:29:29.694Z,95387.14
2019-04-25T11:31:59.303Z,95383.45
2019-04-25T11:34:28.923Z,95379.98
2019-04-25T11:36:58.565Z,95381.90
2019-04-25T11:39:56.918Z,95378.16
2019-04-25T11:42:26.864Z,95374.71
2019-04-25T11:44:56.700Z,95373.89
2019-04-25T11:47:26.581Z,95373.09
2019-04-25T11:49:56.431Z,95362.91
2019-04-25T11:52:28.206Z,95365.05
2019-04-25T11:54:57.575Z,95365.33
2019-04-25T11:57:28.588Z,95358.38
2019-04-25T12:00:00.515Z,95358.41
2019-04-25T12:02:30.179Z,95357.83
2019-04-25T12:05:01.707Z,95352.20
2019-04-25T12:07:31.383Z,95346.36
2019-04-25T12:10:00.956Z,95340.48
2019-04-25T12:12:30.975Z,95337.28
2019-04-25T12:15:00.540Z,95334.59
2019-04-25T12:17:30.269Z,95330.56
2019-04-25T12:20:00.206Z,95323.33
2019-04-25T12:22:29.851Z,95322.77
2019-04-25T12:24:59.502Z,95317.16
2019-04-25T12:27:29.177Z,95306.45
2019-04-25T12:29:59.515Z,95307.21
2019-04-25T12:32:35.069Z,95314.98
2019-04-25T12:35:04.074Z,95310.94
2019-04-25T12:37:35.091Z,95310.96
2019-04-25T12:40:06.492Z,95299.72
2019-04-25T12:42:36.251Z,95298.05
2019-04-25T12:45:24.171Z,95292.88
2019-04-25T12:47:56.597Z,95286.48
2019-04-25T12:50:25.154Z,95290.27
2019-04-25T12:52:55.973Z,95283.60
2019-04-25T12:55:25.694Z,95282.77
2019-04-25T12:57:56.488Z,95278.74
2019-04-25T13:00:27.013Z,95268.96
2019-04-25T13:02:56.710Z,95263.77
2019-04-25T13:05:26.188Z,95261.36
2019-04-25T13:07:57.420Z,95260.59
2019-04-25T13:10:26.905Z,95261.66
2019-04-25T13:12:56.450Z,95264.30
2019-04-25T13:15:27.062Z,95260.26
2019-04-25T13:17:57.076Z,95253.02
2019-04-25T13:20:26.562Z,95255.97
2019-04-25T13:22:56.235Z,95247.10
2019-04-25T13:25:25.922Z,95240.86
2019-04-25T13:28:20.604Z,95239.46
2019-04-25T13:31:12.350Z,95236.26
2019-04-25T13:34:02.016Z,95234.44
2019-04-25T13:36:34.706Z,95234.91
2019-04-25T13:39:07.578Z,95232.21
2019-04-25T13:41:37.096Z,95228.78
2019-04-25T13:44:07.148Z,95228.20
2019-04-25T13:46:36.809Z,95217.45
2019-04-25T13:49:06.679Z,95215.37
2019-04-25T13:51:36.205Z,95209.53
2019-04-25T13:54:06.091Z,95212.70
2019-04-25T13:56:40.311Z,95213.23
2019-04-25T13:59:07.568Z,95212.63
2019-04-25T14:01:37.089Z,95215.96
2019-04-25T14:04:07.220Z,95216.80
2019-04-25T14:06:36.995Z,95211.41
2019-04-25T14:09:13.448Z,95209.28
2019-04-25T14:11:44.126Z,95212.53
2019-04-25T14:14:13.770Z,95215.90
2019-04-25T14:17:17.541Z,95216.30
2019-04-25T14:20:04.775Z,95218.45
2019-04-25T14:22:34.284Z,95211.16
2019-04-25T14:25:04.071Z,95218.68
2019-04-25T14:27:34.088Z,95214.91
2019-04-25T14:30:04.255Z,95216.81
2019-04-25T14:32:35.097Z,95218.22
2019-04-25T14:35:05.051Z,95213.49
2019-04-25T14:37:39.479Z,95222.13
2019-04-25T14:40:06.822Z,95218.47
2019-04-25T14:42:36.430Z,95210.21
2019-04-25T14:45:06.463Z,95211.85
2019-04-25T14:47:36.001Z,95212.69
2019-04-25T14:50:05.800Z,95217.80
2019-04-25T14:52:35.669Z,95220.23
2019-04-25T14:55:19.633Z,95222.13
2019-04-25T14:57:49.154Z,95222.14
2019-04-25T15:00:26.422Z,95217.31
2019-04-25T15:02:55.912Z,95223.21
2019-04-25T15:05:26.515Z,95227.75
2019-04-25T15:07:56.033Z,95222.14
2019-04-25T15:10:26.491Z,95230.16
2019-04-25T15:12:56.328Z,95228.30
2019-04-25T15:15:26.614Z,95230.69
2019-04-25T15:17:56.404Z,95239.48
2019-04-25T15:20:26.211Z,95242.11
2019-04-25T15:22:57.054Z,95248.77
2019-04-25T15:25:27.450Z,95251.72
2019-04-25T15:27:56.962Z,95255.20
2019-04-25T15:30:29.534Z,95254.69
2019-04-25T15:32:59.146Z,95253.36
2019-04-25T15:35:38.352Z,95249.30
2019-04-25T15:38:13.209Z,95248.19
2019-04-25T15:40:53.144Z,95245.23
2019-04-25T15:43:29.281Z,95246.59
2019-04-25T15:46:16.555Z,95237.24
2019-04-25T15:48:46.122Z,95234.62
2019-04-25T15:51:15.624Z,95234.57
2019-04-25T15:53:45.126Z,95223.06
2019-04-25T15:56:14.630Z,95224.14
2019-04-25T15:58:44.112Z,95231.37
2019-04-25T16:01:13.623Z,95236.74
2019-04-25T16:03:43.136Z,95237.45
2019-04-25T16:06:12.822Z,95239.02
2019-04-25T16:08:42.406Z,95246.24
2019-04-25T16:11:11.937Z,95253.41
2019-04-25T16:13:41.422Z,95256.83
2019-04-25T16:16:10.932Z,95254.31
2019-04-25T16:18:41.180Z,95256.56
2019-04-25T16:21:10.839Z,95264.19
2019-04-25T16:23:40.358Z,95259.05
2019-04-25T16:26:09.939Z,95259.77
2019-04-25T16:28:39.805Z,95263.72
2019-04-25T16:31:11.055Z,95263.19
2019-04-25T16:33:40.781Z,95268.42
2019-04-25T16:36:10.330Z,95268.94
2019-04-25T16:38:39.822Z,95277.58
2019-04-25T16:41:10.732Z,95271.69
2019-04-25T16:43:43.715Z,95266.20
2019-04-25T16:46:14.293Z,95263.41
2019-04-25T16:48:43.819Z,95263.37
2019-04-25T16:51:14.425Z,95268.56
2019-04-25T16:53:43.928Z,95270.09
2019-04-25T16:56:13.701Z,95271.38
2019-04-25T16:58:43.292Z,95276.08
2019-04-25T17:01:14.312Z,95272.28
2019-04-25T17:03:44.659Z,95283.58
2019-04-25T17:06:14.415Z,95282.23
2019-04-25T17:08:44.034Z,95284.21
2019-04-25T17:11:13.686Z,95291.70
2019-04-25T17:13:49.382Z,95287.32
2019-04-25T17:16:37.926Z,95292.73
2019-04-25T17:19:10.951Z,95288.28
2019-04-25T17:21:40.626Z,95293.94
2019-04-25T17:24:10.150Z,95296.47
2019-04-25T17:26:39.699Z,95295.12
2019-04-25T17:29:12.790Z,95296.32
2019-04-25T17:32:01.487Z,95295.58
2019-04-25T17:34:48.696Z,95299.36
2019-04-25T17:37:24.647Z,95301.09
2019-04-25T17:40:00.606Z,95298.27
2019-04-25T17:42:30.910Z,95295.58
2019-04-25T17:45:00.603Z,95301.00
2019-04-25T17:47:30.340Z,95300.11
2019-04-25T17:49:59.820Z,95300.30
2019-04-25T17:52:29.359Z,95303.58
2019-04-25T17:54:58.875Z,95299.83
2019-04-25T17:57:28.438Z,95312.55
2019-04-25T17:59:57.948Z,95318.31
2019-04-25T18:02:28.084Z,95324.50
2019-04-25T18:04:57.569Z,95319.29
2019-04-25T18:07:27.067Z,95322.88
2019-04-25T18:09:56.743Z,95328.64
2019-04-25T18:12:26.488Z,95340.88
2019-04-25T18:14:57.704Z,95346.83
2019-04-25T18:17:27.269Z,95350.70
2019-04-25T18:20:05.416Z,95354.69
2019-04-25T18:22:56.691Z,95364.58
2019-04-25T18:25:51.104Z,95360.50
2019-04-25T18:28:32.689Z,95358.70
2019-04-25T18:31:02.965Z,95359.73
2019-04-25T18:33:32.609Z,95355.33
2019-04-25T18:36:18.481Z,95364.17
2019-04-25T18:38:57.268Z,95359.09
2019-04-25T18:41:35.393Z,95364.36
2019-04-25T18:44:06.959Z,95363.84
2019-04-25T18:46:40.515Z,95361.48
2019-04-25T18:49:10.120Z,95358.66
2019-04-25T18:51:40.642Z,95362.34
2019-04-25T18:54:29.132Z,95362.41
2019-04-25T18:57:06.111Z,95364.02
2019-04-25T18:59:55.445Z,95365.27
2019-04-25T19:02:49.680Z,95363.94
2019-04-25T19:05:41.076Z,95357.73
2019-04-25T19:08:10.674Z,95356.81
2019-04-25T19:10:40.774Z,95358.29
2019-04-25T19:13:12.883Z,95350.78
2019-04-25T19:15:43.239Z,95356.53
2019-04-25T19:18:12.844Z,95355.20
2019-04-25T19:20:43.962Z,95357.55
2019-04-25T19:23:13.643Z,95362.27
2019-04-25T19:25:43.729Z,95358.22
2019-04-25T19:28:13.288Z,95351.37
2019-04-25T19:30:43.103Z,95353.91
2019-04-25T19:33:12.716Z,95352.10
2019-04-25T19:35:42.180Z,95354.38
2019-04-25T19:38:11.706Z,95354.41
2019-04-25T19:40:49.647Z,95354.50
2019-04-25T19:43:29.258Z,95354.35
2019-04-25T19:45:58.817Z,95354.87
2019-04-25T19:48:28.510Z,95345.84
2019-04-25T19:50:57.998Z,95361.97
2019-04-25T19:53:27.493Z,95355.49
2019-04-25T19:55:56.975Z,95355.41
2019-04-25T19:58:26.448Z,95351.11
2019-04-25T20:00:56.060Z,95347.77
2019-04-25T20:03:49.249Z,95349.49
2019-04-25T20:06:17.866Z,95346.06
2019-04-25T20:08:52.923Z,95354.27
2019-04-25T20:11:28.729Z,95359.98
2019-04-25T20:13:58.220Z,95357.92
2019-04-25T20:16:29.359Z,95357.63
2019-04-25T20:18:58.898Z,95359.54
2019-04-25T20:21:28.362Z,95363.34
2019-04-25T20:23:57.841Z,95361.50
2019-04-25T20:26:27.357Z,95359.03
2019-04-25T20:28:56.845Z,95360.78
2019-04-25T20:31:26.559Z,95364.54
2019-04-25T20:34:05.269Z,95365.92
2019-04-25T20:36:27.283Z,95364.52
2019-04-25T20:38:56.812Z,95359.95
2019-04-25T20:41:26.291Z,95366.70
2019-04-25T20:43:55.775Z,95362.91
2019-04-25T20:46:25.239Z,95367.39
2019-04-25T20:48:54.786Z,95372.91
2019-04-25T20:51:24.268Z,95377.98
2019-04-25T20:53:53.760Z,95366.58
2019-04-25T20:56:23.294Z,95372.52
2019-04-25T20:58:53.514Z,95375.03
2019-04-25T21:01:23.044Z,95369.15
2019-04-25T21:03:52.509Z,95367.69
2019-04-25T21:06:32.425Z,95364.53
2019-04-25T21:09:02.284Z,95370.26
2019-04-25T21:11:31.858Z,95369.61
2019-04-25T21:14:19.354Z,95371.28
2019-04-25T21:17:02.838Z,95364.16
2019-04-25T21:19:34.614Z,95368.03
2019-04-25T21:22:04.086Z,95373.91
2019-04-25T21:24:33.579Z,95372.28
2019-04-25T21:27:03.096Z,95373.01
2019-04-25T21:29:32.571Z,95370.82
2019-04-25T21:32:02.061Z,95369.71
2019-04-25T21:34:31.587Z,95372.19
2019-04-25T21:37:02.099Z,95375.49
2019-04-25T21:39:55.102Z,95383.34
2019-04-25T21:42:34.869Z,95377.09
2019-04-25T21:45:05.110Z,95374.75
2019-04-25T21:47:34.596Z,95377.67
2019-04-25T21:50:04.819Z,95376.77
2019-04-25T21:52:34.566Z,95378.73
2019-04-25T21:55:04.486Z,95376.41
2019-04-25T21:57:34.163Z,95379.74
2019-04-25T22:00:08.879Z,95374.46
2019-04-25T22:02:36.105Z,95382.39
2019-04-25T22:05:06.447Z,95376.80
2019-04-25T22:07:36.117Z,95385.03
2019-04-25T22:10:07.411Z,95378.58
2019-04-25T22:12:36.976Z,95380.43
2019-04-25T22:15:09.531Z,95383.78
2019-04-25T22:17:39.041Z,95382.66
2019-04-25T22:20:09.118Z,95381.20
2019-04-25T22:22:38.620Z,95388.57
2019-04-25T22:25:08.107Z,95381.77
2019-04-25T22:27:37.963Z,95380.30
2019-04-25T22:30:09.553Z,95382.27
2019-04-25T22:33:01.586Z,95374.45
2019-04-25T22:35:49.136Z,95369.13
2019-04-25T22:38:18.996Z,95371.56
2019-04-25T22:40:48.498Z,95369.34
2019-04-25T22:43:20.050Z,95375.06
2019-04-25T22:45:49.846Z,95375.57
2019-04-25T22:48:26.128Z,95382.58
2019-04-25T22:50:55.922Z,95378.42
2019-04-25T22:53:26.203Z,95378.45
2019-04-25T22:55:56.525Z,95374.30
2019-04-25T22:58:26.052Z,95374.20
2019-04-25T23:00:55.579Z,95367.64
2019-04-25T23:03:33.250Z,95369.77
2019-04-25T23:06:02.822Z,95370.55
2019-04-25T23:08:33.425Z,95369.91
2019-04-25T23:11:02.919Z,95373.09
2019-04-25T23:13:32.361Z,95369.38
2019-04-25T23:16:02.531Z,95378.70
2019-04-25T23:18:33.063Z,95374.85
2019-04-25T23:21:02.535Z,95375.53
2019-04-25T23:23:32.458Z,95371.41
2019-04-25T23:26:29.886Z,95370.20
2019-04-25T23:29:00.384Z,95368.61
2019-04-25T23:31:31.284Z,95371.25
2019-04-25T23:34:01.036Z,95365.14
2019-04-25T23:36:30.513Z,95370.69
2019-04-25T23:39:00.017Z,95372.23
2019-04-25T23:41:29.918Z,95377.52
2019-04-25T23:43:59.395Z,95372.82
2019-04-25T23:46:29.247Z,95367.78
2019-04-25T23:48:58.784Z,95380.42
2019-04-25T23:51:28.264Z,95375.08
2019-04-25T23:53:58.063Z,95378.09
2019-04-25T23:56:27.576Z,95376.20
2019-04-25T23:58:57.446Z,95373.66
